CYYZ/YYZ METAR and TAF weather

Enter ICAO airport designator
Station Type Date Time Source
CYYZ METAR 2018/11/15 06:00 UTC NOAA

CYYZ 150600Z 09004KT 15SM SCT038 BKN260 M05/M10 A3050 RMK SC4CI3 PRESFR SLP340


Station Type Date Time Source
CYYZ Decoded METAR 2018/11/15 06:00 UTC NOAA

Toronto Pearson Int'L. Ont., Canada (CYYZ) 43-40N 079-38W 173M
Nov 15, 2018 - 01:00 AM EST / 2018.11.15 0600 UTC
Wind: from the E (090 degrees) at 5 MPH (4 KT):0
Visibility: 15 mile(s):0
Sky conditions: mostly cloudy
Temperature: 23 F (-5 C)
Windchill: 15 F (-9 C):1
Dew Point: 14 F (-10 C)
Relative Humidity: 67%
Pressure (altimeter): 30.5 in. Hg (1032 hPa)
Pressure tendency: falling rapidly
ob: CYYZ 150600Z 09004KT 15SM SCT038 BKN260 M05/M10 A3050 RMK SC4CI3 PRESFR SLP340
cycle: 6

Station Type Date Time Source
CYYZ TAF 2018/11/15 06:42 UTC NOAA

TAF CYYZ 150538Z 1506/1612 VRB03KT P6SM SCT040 BKN250
FM150800 06007KT P6SM SCT020 BKN240
TEMPO 1508/1512 BKN020 OVC240
BECMG 1511/1512 09008KT
FM151500 13015KT P6SM BKN120 OVC200
FM152000 12012KT 6SM -SN BKN030 OVC070
FM152100 11010KT 2SM -SN OVC025
FM152300 11008KT 1SM -SN VV009
FM160400 12007KT 3/4SM -SN BR OVC003
FM160900 14005KT 3SM -RASN BR BKN004 OVC010
RMK NXT FCST BY 150900Z


Example: see airport list